Altamahaw, North Carolina
Current Conditions -  °F | °C
As of 3:54 AM on Friday 24 Oct 2014 (Local Time) from KBUY Reporting Station
Clear Clear  
Wind Chill:   Ceiling: Unl
Heat Index:   Visibility: 10mi
Dew Point:   Wind: 6mph
Humidity: 79%   Direction: 250°WSW
Pressure: 30.03"   Gusts: NA
Location:  36.18°N, 79.51°W
Report Text: KBUY 240754Z AUTO 25005KT 10SM CLR 07/03 A3003 RMK AO2 SLP165 T00670033
Loading
Personal Weather Stations






























Interactive Weather Map
Tropical Storm Tracking
New forecast layout! Learn more

10-Day Weather Forecast

Advertisements
Track Severe Weather on mobile